Overview Statistics Trail Chart Weather Telemetry Raw packets
 

This is the latest recevied weather packets stored in our database for station/object WW3TRG. If no packets are shown the sender has not sent any weather packets the latest 10 day(s).

<< 9 10 11 12 13 14 15 >>
Time Temp. Humidity Pressure Rain* Wind** Luminosity Snow
1788547507 26.67° C 73% 1012 hPa 0 mm - 100 W/m² -
1788547202 26.67° C 72% 1012 hPa 0 mm - 73 W/m² -
1788546897 26.67° C 75% 1012.2 hPa 0 mm - 110 W/m² -
1788546592 27.22° C 72% 1012.2 hPa 0 mm - 171 W/m² -
1788546288 27.22° C 67% 1012.3 hPa 0 mm - 60 W/m² -
1788545987 28.33° C 71% 1012.1 hPa 0 mm - 72 W/m² -
1788545683 28.89° C 68% 1012.2 hPa 0 mm - 161 W/m² -
1788545372 28.33° C 64% 1012.4 hPa 0 mm - 289 W/m² -
1788545067 27.78° C 63% 1012.2 hPa 0 mm - 256 W/m² -
1788544767 28.89° C 65% 1012.1 hPa 0 mm - 460 W/m² -
1788544465 27.78° C 63% 1012.2 hPa 0 mm - 212 W/m² -
1788544160 27.78° C 70% 1012.1 hPa 0 mm - 621 W/m² -
1788543855 26.67° C 68% 1012.5 hPa 0 mm - 198 W/m² -
1788543552 26.11° C 74% 1012.5 hPa 0 mm - 158 W/m² -
1788543247 26.67° C 75% 1012.4 hPa 0 mm - 130 W/m² -
1788542943 26.67° C 74% 1012.5 hPa 0 mm - 78 W/m² -
1788542642 26.67° C 73% 1012.4 hPa 0 mm - 43 W/m² -
1788542337 26.67° C 70% 1012.1 hPa 0 mm - 44 W/m² -
1788542032 27.22° C 66% 1012.2 hPa 0 mm - 77 W/m² -
1788541729 27.78° C 63% 1012.1 hPa 0 mm - 113 W/m² -
1788541424 27.78° C 64% 1012 hPa 0 mm - 170 W/m² -
1788541118 28.33° C 61% 1012.3 hPa 0 mm - 576 W/m² -
1788540812 28.33° C 63% 1012.1 hPa 0 mm - 590 W/m² -
1788540507 28.89° C 62% 1012.1 hPa 0 mm - 601 W/m² -
1788540207 28.33° C 63% 1012.3 hPa 0 mm - 505 W/m² -

* Rain latest hour (hover to see other rain measurements)
** Current wind speed in m/s (hover to see current wind gust speed)